createdAt,value
2017-08-31T00:02:04.865Z,20.80
2017-08-31T00:04:30.958Z,20.80
2017-08-31T00:06:57.117Z,20.90
2017-08-31T00:09:23.217Z,20.80
2017-08-31T00:11:49.315Z,20.80
2017-08-31T00:14:15.388Z,20.90
2017-08-31T00:16:41.493Z,20.90
2017-08-31T00:19:07.573Z,21.00
2017-08-31T00:21:33.753Z,21.00
2017-08-31T00:23:59.868Z,21.10
2017-08-31T00:26:25.994Z,21.10
2017-08-31T00:28:52.854Z,21.20
2017-08-31T00:31:18.935Z,21.20
2017-08-31T00:33:45.054Z,21.20
2017-08-31T00:36:11.125Z,21.20
2017-08-31T00:38:37.195Z,21.30
2017-08-31T00:41:03.317Z,21.40
2017-08-31T00:43:29.405Z,21.40
2017-08-31T00:45:55.501Z,21.50
2017-08-31T00:48:21.599Z,21.50
2017-08-31T00:50:47.705Z,21.60
2017-08-31T00:53:13.754Z,21.60
2017-08-31T00:55:39.858Z,21.70
2017-08-31T00:58:05.967Z,21.70
2017-08-31T01:00:32.072Z,21.70
2017-08-31T01:02:58.189Z,21.70
2017-08-31T01:05:24.282Z,21.80
2017-08-31T01:07:50.347Z,21.80
2017-08-31T01:10:16.726Z,21.80
2017-08-31T01:12:42.789Z,21.80
2017-08-31T01:15:08.916Z,21.70
2017-08-31T01:17:35.238Z,21.40
2017-08-31T01:20:01.350Z,22.30
2017-08-31T01:22:27.486Z,22.60
2017-08-31T01:24:53.596Z,22.50
2017-08-31T01:27:19.680Z,22.00
2017-08-31T01:29:45.812Z,21.70
2017-08-31T01:32:11.886Z,21.40
2017-08-31T01:34:37.988Z,21.30
2017-08-31T01:37:04.103Z,21.40
2017-08-31T01:39:30.163Z,21.40
2017-08-31T01:41:56.227Z,21.40
2017-08-31T01:44:22.384Z,21.50
2017-08-31T01:46:48.458Z,21.50
2017-08-31T01:49:14.594Z,21.50
2017-08-31T01:51:40.718Z,21.40
2017-08-31T01:54:06.817Z,21.50
2017-08-31T01:56:32.936Z,21.50
2017-08-31T01:58:59.003Z,21.50
2017-08-31T02:01:25.064Z,21.50
2017-08-31T02:03:51.140Z,21.50
2017-08-31T02:06:17.213Z,21.50
2017-08-31T02:08:44.074Z,21.50
2017-08-31T02:11:10.159Z,21.60
2017-08-31T02:13:36.242Z,21.50
2017-08-31T02:16:02.320Z,21.50
2017-08-31T02:18:29.339Z,21.50
2017-08-31T02:20:55.452Z,21.50
2017-08-31T02:23:21.500Z,21.50
2017-08-31T02:25:47.610Z,21.50
2017-08-31T02:28:13.738Z,21.50
2017-08-31T02:30:39.850Z,21.40
2017-08-31T02:33:06.013Z,21.50
2017-08-31T02:35:32.092Z,21.40
2017-08-31T02:37:58.190Z,21.50
2017-08-31T02:40:24.321Z,21.40
2017-08-31T02:42:50.406Z,21.50
2017-08-31T02:45:16.488Z,21.50
2017-08-31T02:47:42.598Z,21.50
2017-08-31T02:50:08.658Z,21.60
2017-08-31T02:52:34.738Z,21.50
2017-08-31T02:55:00.824Z,21.50
2017-08-31T02:57:27.166Z,21.40
2017-08-31T02:59:53.225Z,21.60
2017-08-31T03:02:19.297Z,21.60
2017-08-31T03:04:45.392Z,21.60
2017-08-31T03:07:11.428Z,21.60
2017-08-31T03:09:37.497Z,21.30
2017-08-31T03:12:03.570Z,21.20
2017-08-31T03:14:29.658Z,21.10
2017-08-31T03:16:55.746Z,20.90
2017-08-31T03:19:21.824Z,20.90
2017-08-31T03:21:47.936Z,20.90
2017-08-31T03:24:14.006Z,20.90
2017-08-31T03:26:40.090Z,20.90
2017-08-31T03:29:06.166Z,20.90
2017-08-31T03:31:32.241Z,20.90
2017-08-31T03:33:58.332Z,21.00
2017-08-31T03:36:24.458Z,20.90
2017-08-31T03:38:50.547Z,20.90
2017-08-31T03:41:16.640Z,21.00
2017-08-31T03:43:42.706Z,21.10
2017-08-31T03:46:08.841Z,21.10
2017-08-31T03:48:34.981Z,21.10
2017-08-31T03:51:01.066Z,21.10
2017-08-31T03:53:27.156Z,21.10
2017-08-31T03:55:53.283Z,21.00
2017-08-31T03:58:19.469Z,21.00
2017-08-31T04:00:45.569Z,20.90
2017-08-31T04:03:11.725Z,20.90
2017-08-31T04:05:37.812Z,20.70
2017-08-31T04:08:03.921Z,20.60
2017-08-31T04:10:30.009Z,20.60
2017-08-31T04:12:56.098Z,20.70
2017-08-31T04:15:22.165Z,20.60
2017-08-31T04:17:48.262Z,20.60
2017-08-31T04:20:14.315Z,20.50
2017-08-31T04:22:40.391Z,20.50
2017-08-31T04:25:06.489Z,20.20
2017-08-31T04:27:32.539Z,20.20
2017-08-31T04:29:58.652Z,20.40
2017-08-31T04:32:25.017Z,20.50
2017-08-31T04:34:51.100Z,20.50
2017-08-31T04:37:17.212Z,20.50
2017-08-31T04:39:43.295Z,20.60
2017-08-31T04:42:09.365Z,20.60
2017-08-31T04:44:35.461Z,20.70
2017-08-31T04:47:01.551Z,20.70
2017-08-31T04:49:27.611Z,20.70
2017-08-31T04:51:53.718Z,20.90
2017-08-31T04:54:19.798Z,20.90
2017-08-31T04:56:45.914Z,21.00
2017-08-31T04:59:12.003Z,21.00
2017-08-31T05:01:38.066Z,21.00
2017-08-31T05:04:04.200Z,20.90
2017-08-31T05:06:30.283Z,21.00
2017-08-31T05:08:56.420Z,21.10
2017-08-31T05:11:22.523Z,21.20
2017-08-31T05:13:48.686Z,21.10
2017-08-31T05:16:14.776Z,21.00
2017-08-31T05:18:40.920Z,21.10
2017-08-31T05:21:07.013Z,21.10
2017-08-31T05:23:33.124Z,21.10
2017-08-31T05:25:59.244Z,21.00
2017-08-31T05:28:25.317Z,21.10
2017-08-31T05:30:51.402Z,20.90
2017-08-31T05:33:17.499Z,20.90
2017-08-31T05:35:43.596Z,21.10
2017-08-31T05:38:09.716Z,21.20
2017-08-31T05:40:35.839Z,21.30
2017-08-31T05:43:01.921Z,21.30
2017-08-31T05:45:28.033Z,21.40
2017-08-31T05:47:54.115Z,21.50
2017-08-31T05:50:20.194Z,21.30
2017-08-31T05:52:46.290Z,21.30
2017-08-31T05:55:12.457Z,21.30
2017-08-31T05:57:38.563Z,21.40
2017-08-31T06:00:04.632Z,21.40
2017-08-31T06:02:30.747Z,21.60
2017-08-31T06:04:56.851Z,21.70
2017-08-31T06:07:22.954Z,21.40
2017-08-31T06:09:49.025Z,21.10
2017-08-31T06:12:15.178Z,21.00
2017-08-31T06:14:41.289Z,21.20
2017-08-31T06:17:07.369Z,21.30
2017-08-31T06:19:33.472Z,21.30
2017-08-31T06:21:59.578Z,21.60
2017-08-31T06:24:25.686Z,22.10
2017-08-31T06:26:51.755Z,22.70
2017-08-31T06:29:17.825Z,22.70
2017-08-31T06:31:44.559Z,23.00
2017-08-31T06:34:10.689Z,23.20
2017-08-31T06:36:36.747Z,23.20
2017-08-31T06:39:02.847Z,23.10
2017-08-31T06:41:28.947Z,22.80
2017-08-31T06:43:54.996Z,22.90
2017-08-31T06:46:21.098Z,22.70
2017-08-31T06:48:47.194Z,22.70
2017-08-31T06:51:13.301Z,22.70
2017-08-31T06:53:39.397Z,22.80
2017-08-31T06:56:05.483Z,22.80
2017-08-31T06:58:31.578Z,22.50
2017-08-31T07:00:57.711Z,22.40
2017-08-31T07:03:23.817Z,22.40
2017-08-31T07:05:49.907Z,22.70
2017-08-31T07:08:16.021Z,23.20
2017-08-31T07:10:42.111Z,23.50
2017-08-31T07:13:08.203Z,23.50
2017-08-31T07:15:34.330Z,23.50
2017-08-31T07:18:00.387Z,23.60
2017-08-31T07:20:26.513Z,23.60
2017-08-31T07:22:52.620Z,23.80
2017-08-31T07:25:18.762Z,23.90
2017-08-31T07:27:44.861Z,23.80
2017-08-31T07:30:10.967Z,24.00
2017-08-31T07:32:37.066Z,24.20
2017-08-31T07:35:03.186Z,24.40
2017-08-31T07:37:29.295Z,24.30
2017-08-31T07:39:55.367Z,24.70
2017-08-31T07:42:21.455Z,24.70
2017-08-31T07:44:47.552Z,24.20
2017-08-31T07:47:13.623Z,24.20
2017-08-31T07:49:39.676Z,24.50
2017-08-31T07:52:05.813Z,24.80
2017-08-31T07:54:31.903Z,24.70
2017-08-31T07:56:58.041Z,24.50
2017-08-31T07:59:24.124Z,24.50
2017-08-31T08:01:50.214Z,24.80
2017-08-31T08:04:16.362Z,25.00
2017-08-31T08:06:42.434Z,25.20
2017-08-31T08:09:08.504Z,25.30
2017-08-31T08:11:34.602Z,25.50
2017-08-31T08:14:00.675Z,25.70
2017-08-31T08:16:26.756Z,25.50
2017-08-31T08:18:53.064Z,25.60
2017-08-31T08:21:20.017Z,25.60
2017-08-31T08:23:46.118Z,25.90
2017-08-31T08:26:12.208Z,25.80
2017-08-31T08:28:38.298Z,25.70
2017-08-31T08:31:04.389Z,25.80
2017-08-31T08:33:30.494Z,25.90
2017-08-31T08:35:56.596Z,26.00
2017-08-31T08:38:22.701Z,26.40
2017-08-31T08:40:48.823Z,26.90
2017-08-31T08:43:14.876Z,27.20
2017-08-31T08:45:40.970Z,26.80
2017-08-31T08:48:07.107Z,27.00
2017-08-31T08:50:33.231Z,27.30
2017-08-31T08:52:59.308Z,27.50
2017-08-31T08:55:25.467Z,27.70
2017-08-31T08:57:51.563Z,27.80
2017-08-31T09:00:17.719Z,27.90
2017-08-31T09:02:43.784Z,28.00
2017-08-31T09:05:09.836Z,27.80
2017-08-31T09:07:35.923Z,27.90
2017-08-31T09:10:02.003Z,27.70
2017-08-31T09:12:28.084Z,27.60
2017-08-31T09:14:54.188Z,27.50
2017-08-31T09:17:20.265Z,27.40
2017-08-31T09:19:46.364Z,27.50
2017-08-31T09:22:12.450Z,27.50
2017-08-31T09:24:38.536Z,27.40
2017-08-31T09:27:04.624Z,27.30
2017-08-31T09:29:30.728Z,27.30
2017-08-31T09:31:56.818Z,27.50
2017-08-31T09:34:22.898Z,27.70
2017-08-31T09:36:49.048Z,27.80
2017-08-31T09:39:15.566Z,27.50
2017-08-31T09:41:41.663Z,27.30
2017-08-31T09:44:07.756Z,27.10
2017-08-31T09:46:33.852Z,27.20
2017-08-31T09:48:59.924Z,27.50
2017-08-31T09:51:26.045Z,27.00
2017-08-31T09:53:52.178Z,27.10
2017-08-31T09:56:18.268Z,27.00
2017-08-31T09:58:44.378Z,26.70
2017-08-31T10:01:10.542Z,26.90
2017-08-31T10:03:36.624Z,27.10
2017-08-31T10:06:02.680Z,26.70
2017-08-31T10:08:28.777Z,26.80
2017-08-31T10:10:54.860Z,26.90
2017-08-31T10:13:20.951Z,26.80
2017-08-31T10:15:47.055Z,27.10
2017-08-31T10:18:13.161Z,27.10
2017-08-31T10:20:39.289Z,27.20
2017-08-31T10:23:05.478Z,27.20
2017-08-31T10:25:31.563Z,27.50
2017-08-31T10:27:57.649Z,27.40
2017-08-31T10:30:23.770Z,27.40
2017-08-31T10:32:49.908Z,27.30
2017-08-31T10:35:15.998Z,27.20
2017-08-31T10:37:42.110Z,26.80
2017-08-31T10:40:08.190Z,27.10
2017-08-31T10:42:34.354Z,26.40
2017-08-31T10:45:01.001Z,26.20
2017-08-31T10:47:27.187Z,26.10
2017-08-31T10:49:53.324Z,26.00
2017-08-31T10:52:19.420Z,26.10
2017-08-31T10:54:45.507Z,26.00
2017-08-31T10:57:11.636Z,26.00
2017-08-31T10:59:37.765Z,26.10
2017-08-31T11:02:04.289Z,25.90
2017-08-31T11:04:30.435Z,26.00
2017-08-31T11:06:56.527Z,26.00
2017-08-31T11:09:22.616Z,25.80
2017-08-31T11:11:48.685Z,26.00
2017-08-31T11:14:14.797Z,25.90
2017-08-31T11:16:40.887Z,25.90
2017-08-31T11:19:06.975Z,26.20
2017-08-31T11:21:33.067Z,26.50
2017-08-31T11:23:59.155Z,26.30
2017-08-31T11:26:25.255Z,26.00
2017-08-31T11:28:51.414Z,25.90
2017-08-31T11:31:17.591Z,25.70
2017-08-31T11:33:43.956Z,25.70
2017-08-31T11:36:10.110Z,25.50
2017-08-31T11:38:36.153Z,25.50
2017-08-31T11:41:02.274Z,25.50
2017-08-31T11:43:28.354Z,25.50
2017-08-31T11:45:54.445Z,25.30
2017-08-31T11:48:20.784Z,25.20
2017-08-31T11:50:46.861Z,25.20
2017-08-31T11:53:12.926Z,25.10
2017-08-31T11:55:38.993Z,25.00
2017-08-31T11:58:05.069Z,24.90
2017-08-31T12:00:31.207Z,24.80
2017-08-31T12:02:57.313Z,24.70
2017-08-31T12:05:23.394Z,24.60
2017-08-31T12:07:49.484Z,24.70
2017-08-31T12:10:15.561Z,24.70
2017-08-31T12:12:41.620Z,24.60
2017-08-31T12:15:07.727Z,24.70
2017-08-31T12:17:33.813Z,24.50
2017-08-31T12:19:59.895Z,24.40
2017-08-31T12:22:25.968Z,24.40
2017-08-31T12:24:52.072Z,24.50
2017-08-31T12:27:18.148Z,24.30
2017-08-31T12:29:44.211Z,24.40
2017-08-31T12:32:10.312Z,24.40
2017-08-31T12:34:36.381Z,24.20
2017-08-31T12:37:02.453Z,24.10
2017-08-31T12:39:28.581Z,24.10
2017-08-31T12:41:55.450Z,24.20
2017-08-31T12:44:21.580Z,24.20
2017-08-31T12:46:48.576Z,24.20
2017-08-31T12:49:14.701Z,24.20
2017-08-31T12:51:40.801Z,24.30
2017-08-31T12:54:06.914Z,24.50
2017-08-31T12:56:33.022Z,24.40
2017-08-31T12:58:59.100Z,24.60
2017-08-31T13:01:25.294Z,24.60
2017-08-31T13:03:51.386Z,24.50
2017-08-31T13:06:17.650Z,24.40
2017-08-31T13:08:43.727Z,24.30
2017-08-31T13:11:09.799Z,24.40
2017-08-31T13:13:35.889Z,24.50
2017-08-31T13:16:01.963Z,24.50
2017-08-31T13:18:28.058Z,24.60
2017-08-31T13:20:54.162Z,24.70
2017-08-31T13:23:20.294Z,24.70
2017-08-31T13:25:46.366Z,24.70
2017-08-31T13:28:12.420Z,24.50
2017-08-31T13:30:38.526Z,24.30
2017-08-31T13:33:04.623Z,24.00
2017-08-31T13:35:30.710Z,23.90
2017-08-31T13:37:56.816Z,23.80
2017-08-31T13:40:22.929Z,23.50
2017-08-31T13:42:49.046Z,23.50
2017-08-31T13:45:15.174Z,23.40
2017-08-31T13:47:41.266Z,23.40
2017-08-31T13:50:07.352Z,23.40
2017-08-31T13:52:33.479Z,23.40
2017-08-31T13:54:59.574Z,23.40
2017-08-31T13:57:25.634Z,23.50
2017-08-31T13:59:51.720Z,23.50
2017-08-31T14:02:17.843Z,23.50
2017-08-31T14:04:43.969Z,23.50
2017-08-31T14:07:10.063Z,23.40
2017-08-31T14:09:36.518Z,23.20
2017-08-31T14:12:02.623Z,23.20
2017-08-31T14:14:28.748Z,23.20
2017-08-31T14:16:54.825Z,23.20
2017-08-31T14:19:21.001Z,23.10
2017-08-31T14:21:47.869Z,23.00
2017-08-31T14:24:13.961Z,22.80
2017-08-31T14:26:40.019Z,22.70
2017-08-31T14:29:06.142Z,22.50
2017-08-31T14:31:32.215Z,22.50
2017-08-31T14:33:58.294Z,22.50
2017-08-31T14:36:24.657Z,22.50
2017-08-31T14:38:50.744Z,22.40
2017-08-31T14:41:16.841Z,22.40
2017-08-31T14:43:42.947Z,22.30
2017-08-31T14:46:09.042Z,22.10
2017-08-31T14:48:35.207Z,21.80
2017-08-31T14:51:01.332Z,21.80
2017-08-31T14:53:27.413Z,21.60
2017-08-31T14:55:53.620Z,21.40
2017-08-31T14:58:19.713Z,21.30
2017-08-31T15:00:45.834Z,21.10
2017-08-31T15:03:11.945Z,21.10
2017-08-31T15:05:38.034Z,21.00
2017-08-31T15:08:04.125Z,21.10
2017-08-31T15:10:30.199Z,21.10
2017-08-31T15:12:56.282Z,21.20
2017-08-31T15:15:22.369Z,21.20
2017-08-31T15:17:48.514Z,21.10
2017-08-31T15:20:14.675Z,21.20
2017-08-31T15:22:40.755Z,21.40
2017-08-31T15:25:06.831Z,21.10
2017-08-31T15:27:32.944Z,20.70
2017-08-31T15:29:59.039Z,20.50
2017-08-31T15:32:25.106Z,20.40
2017-08-31T15:34:51.222Z,20.20
2017-08-31T15:37:17.293Z,20.30
2017-08-31T15:39:43.367Z,20.30
2017-08-31T15:42:09.461Z,20.30
2017-08-31T15:44:35.543Z,20.30
2017-08-31T15:47:01.617Z,20.30
2017-08-31T15:49:27.742Z,20.20
2017-08-31T15:51:53.844Z,20.20
2017-08-31T15:54:19.931Z,20.30
2017-08-31T15:56:46.085Z,20.10
2017-08-31T15:59:12.176Z,19.90
2017-08-31T16:01:38.309Z,19.90
2017-08-31T16:04:04.601Z,20.10
2017-08-31T16:06:30.903Z,19.80
2017-08-31T16:08:56.989Z,19.90
2017-08-31T16:11:23.063Z,19.90
2017-08-31T16:13:49.179Z,20.10
2017-08-31T16:16:15.302Z,20.10
2017-08-31T16:18:41.437Z,20.20
2017-08-31T16:21:07.535Z,20.30
2017-08-31T16:23:33.929Z,20.40
2017-08-31T16:26:00.033Z,20.40
2017-08-31T16:28:32.698Z,20.30
2017-08-31T16:30:58.778Z,20.30
2017-08-31T16:33:24.890Z,20.40
2017-08-31T16:35:50.993Z,20.20
2017-08-31T16:38:17.100Z,20.10
2017-08-31T16:40:43.179Z,19.90
2017-08-31T16:43:09.266Z,19.80
2017-08-31T16:45:35.380Z,19.70
2017-08-31T16:48:01.546Z,19.80
2017-08-31T16:50:27.680Z,19.70
2017-08-31T16:52:53.825Z,19.70
2017-08-31T16:55:19.913Z,19.70
2017-08-31T16:57:46.000Z,19.70
2017-08-31T17:00:12.130Z,19.50
2017-08-31T17:02:38.234Z,19.60
2017-08-31T17:05:04.385Z,19.50
2017-08-31T17:07:30.472Z,19.60
2017-08-31T17:09:56.653Z,19.60
2017-08-31T17:12:22.780Z,19.40
2017-08-31T17:14:48.878Z,19.30
2017-08-31T17:17:15.029Z,19.10
2017-08-31T17:19:41.122Z,18.70
2017-08-31T17:22:07.239Z,18.50
2017-08-31T17:24:33.329Z,18.40
2017-08-31T17:26:59.412Z,18.30
2017-08-31T17:29:25.498Z,18.20
2017-08-31T17:31:51.615Z,18.10
2017-08-31T17:34:17.703Z,18.00
2017-08-31T17:36:43.774Z,18.00
2017-08-31T17:39:09.878Z,17.90
2017-08-31T17:41:35.957Z,17.90
2017-08-31T17:44:02.012Z,17.90
2017-08-31T17:46:28.170Z,17.90
2017-08-31T17:48:54.224Z,17.80
2017-08-31T17:51:20.305Z,17.80
2017-08-31T17:53:46.416Z,17.80
2017-08-31T17:56:12.523Z,17.80
2017-08-31T17:58:38.682Z,17.80
2017-08-31T18:01:04.761Z,17.80
2017-08-31T18:03:31.052Z,17.80
2017-08-31T18:05:57.154Z,17.80
2017-08-31T18:08:23.234Z,17.90
2017-08-31T18:10:49.321Z,17.90
2017-08-31T18:13:15.422Z,17.90
2017-08-31T18:15:41.543Z,17.90
2017-08-31T18:18:07.637Z,17.80
2017-08-31T18:20:33.736Z,17.90
2017-08-31T18:22:59.923Z,17.90
2017-08-31T18:25:26.089Z,17.90
2017-08-31T18:27:52.198Z,17.80
2017-08-31T18:30:18.276Z,17.90
2017-08-31T18:32:44.407Z,17.90
2017-08-31T18:35:10.478Z,17.90
2017-08-31T18:37:36.571Z,17.80
2017-08-31T18:40:02.706Z,17.80
2017-08-31T18:42:28.846Z,17.90
2017-08-31T18:44:54.951Z,17.70
2017-08-31T18:47:21.038Z,17.80
2017-08-31T18:49:47.142Z,17.80
2017-08-31T18:52:13.217Z,17.80
2017-08-31T18:54:39.362Z,17.80
2017-08-31T18:57:05.493Z,17.80
2017-08-31T18:59:31.652Z,17.70
2017-08-31T19:01:57.772Z,17.70
2017-08-31T19:04:23.880Z,17.70
2017-08-31T19:06:49.949Z,17.60
2017-08-31T19:09:16.078Z,17.70
2017-08-31T19:11:42.161Z,17.60
2017-08-31T19:14:08.250Z,17.60
2017-08-31T19:16:34.341Z,17.60
2017-08-31T19:19:00.422Z,17.50
2017-08-31T19:21:26.518Z,17.50
2017-08-31T19:23:52.705Z,17.50
2017-08-31T19:26:18.829Z,17.40
2017-08-31T19:28:45.332Z,17.30
2017-08-31T19:31:11.397Z,17.30
2017-08-31T19:33:37.474Z,17.30
2017-08-31T19:36:03.594Z,17.40
2017-08-31T19:38:29.693Z,17.30
2017-08-31T19:40:55.835Z,17.30
2017-08-31T19:43:21.917Z,17.20
2017-08-31T19:45:48.080Z,17.20
2017-08-31T19:48:14.187Z,17.10
2017-08-31T19:50:40.265Z,17.20
2017-08-31T19:53:06.336Z,17.30
2017-08-31T19:55:32.457Z,17.30
2017-08-31T19:57:58.569Z,17.20
2017-08-31T20:00:24.706Z,17.10
2017-08-31T20:02:50.837Z,16.90
2017-08-31T20:05:17.079Z,16.90
2017-08-31T20:07:43.195Z,16.90
2017-08-31T20:10:09.275Z,16.90
2017-08-31T20:12:35.504Z,17.00
2017-08-31T20:15:01.584Z,17.10
2017-08-31T20:17:27.733Z,17.10
2017-08-31T20:19:53.808Z,16.90
2017-08-31T20:22:19.891Z,17.00
2017-08-31T20:24:45.965Z,17.10
2017-08-31T20:27:12.073Z,17.20
2017-08-31T20:29:38.187Z,17.10
2017-08-31T20:32:04.361Z,17.10
2017-08-31T20:34:30.466Z,17.10
2017-08-31T20:36:56.574Z,17.20
2017-08-31T20:39:22.674Z,17.10
2017-08-31T20:41:48.759Z,17.20
2017-08-31T20:44:14.883Z,17.20
2017-08-31T20:46:41.003Z,17.30
2017-08-31T20:49:07.096Z,17.40
2017-08-31T20:51:33.205Z,17.30
2017-08-31T20:53:59.283Z,17.40
2017-08-31T20:56:25.369Z,17.40
2017-08-31T20:58:51.434Z,17.30
2017-08-31T21:01:17.533Z,17.20
2017-08-31T21:03:43.580Z,17.30
2017-08-31T21:06:09.737Z,17.10
2017-08-31T21:08:35.891Z,17.10
2017-08-31T21:11:02.109Z,17.10
2017-08-31T21:13:28.388Z,16.80
2017-08-31T21:15:55.615Z,16.90
2017-08-31T21:18:21.843Z,17.00
2017-08-31T21:20:48.229Z,17.00
2017-08-31T21:23:14.468Z,17.00
2017-08-31T21:25:40.547Z,16.90
2017-08-31T21:28:06.807Z,17.00
2017-08-31T21:30:32.948Z,17.10
2017-08-31T21:32:59.070Z,17.00
2017-08-31T21:35:25.178Z,17.00
2017-08-31T21:37:51.673Z,17.10
2017-08-31T21:40:17.748Z,17.20
2017-08-31T21:42:43.875Z,17.20
2017-08-31T21:45:10.025Z,17.20
2017-08-31T21:47:36.083Z,17.20
2017-08-31T21:50:02.156Z,17.10
2017-08-31T21:52:28.250Z,17.10
2017-08-31T21:54:54.326Z,16.90
2017-08-31T21:57:20.408Z,17.10
2017-08-31T21:59:46.500Z,17.20
2017-08-31T22:02:12.579Z,17.10
2017-08-31T22:04:38.675Z,17.10
2017-08-31T22:07:04.764Z,17.10
2017-08-31T22:09:30.838Z,17.20
2017-08-31T22:11:56.936Z,17.10
2017-08-31T22:14:23.028Z,17.10
2017-08-31T22:16:49.136Z,17.10
2017-08-31T22:19:15.255Z,17.10
2017-08-31T22:21:41.388Z,17.10
2017-08-31T22:24:07.466Z,17.00
2017-08-31T22:26:33.836Z,17.00
2017-08-31T22:28:59.910Z,17.00
2017-08-31T22:31:25.897Z,16.90
2017-08-31T22:33:51.979Z,17.00
2017-08-31T22:36:18.091Z,17.00
2017-08-31T22:38:44.189Z,17.00
2017-08-31T22:41:10.270Z,17.00
2017-08-31T22:43:36.376Z,17.00
2017-08-31T22:46:02.507Z,17.00
2017-08-31T22:48:28.574Z,17.00
2017-08-31T22:50:54.646Z,17.00
2017-08-31T22:53:20.752Z,17.00
2017-08-31T22:55:46.838Z,16.90
2017-08-31T22:58:15.705Z,16.80
2017-08-31T23:00:41.778Z,16.80
2017-08-31T23:03:07.863Z,16.80
2017-08-31T23:05:33.927Z,16.80
2017-08-31T23:08:00.023Z,16.90
2017-08-31T23:10:26.122Z,16.90
2017-08-31T23:12:52.246Z,17.00
2017-08-31T23:15:18.322Z,17.00
2017-08-31T23:17:44.454Z,17.00
2017-08-31T23:20:10.566Z,16.90
2017-08-31T23:22:36.665Z,17.00
2017-08-31T23:25:02.750Z,17.00
2017-08-31T23:27:28.852Z,17.00
2017-08-31T23:29:54.932Z,17.00
2017-08-31T23:32:21.009Z,17.00
2017-08-31T23:34:47.094Z,17.00
2017-08-31T23:37:13.167Z,17.00
2017-08-31T23:39:39.253Z,16.90
2017-08-31T23:42:05.342Z,16.90
2017-08-31T23:44:31.427Z,16.90
2017-08-31T23:46:57.511Z,16.90
2017-08-31T23:49:23.607Z,16.90
2017-08-31T23:51:49.694Z,17.00
2017-08-31T23:54:15.835Z,17.00
2017-08-31T23:56:41.927Z,17.00
2017-08-31T23:59:08.028Z,16.90
